Time;durP1;ratioP1;P1;durP2;ratioP2;P2;SDS_P1;SDS_P2;PMS_P1;PMS_P2;Temp;Humidity;BMP_temperature;BMP_pressure;BME280_temperature;BME280_humidity;BME280_pressure;Samples;Min_cycle;Max_cycle;Signal;HPM_P1;HPM_P2
2023/04/10 00:00:35;;;;;;;22.27;12.82;;;10.50;89.00;;;;;;4957993;28;20094;-89
2023/04/10 00:03:00;;;;;;;24.40;14.15;;;10.50;88.80;;;;;;4957577;28;20031;-89
2023/04/10 00:05:26;;;;;;;25.35;12.63;;;10.60;88.60;;;;;;4974749;28;20057;-89
2023/04/10 00:07:54;;;;;;;20.38;11.93;;;10.60;88.60;;;;;;4966870;28;20028;-89
2023/04/10 00:10:25;;;;;;;21.70;12.13;;;10.70;88.70;;;;;;4961381;28;20029;-89
2023/04/10 00:12:52;;;;;;;20.13;12.07;;;10.70;88.50;;;;;;4966433;28;20023;-89
2023/04/10 00:15:18;;;;;;;25.77;12.45;;;10.70;88.30;;;;;;4953228;28;20035;-88
2023/04/10 00:17:44;;;;;;;19.02;11.25;;;10.70;88.50;;;;;;4971135;28;20752;-88
2023/04/10 00:20:10;;;;;;;23.27;11.73;;;10.80;88.30;;;;;;4969900;28;20127;-88
2023/04/10 00:22:35;;;;;;;17.25;10.52;;;10.70;88.30;;;;;;4970537;28;20028;-89
2023/04/10 00:25:01;;;;;;;19.73;10.77;;;10.80;88.70;;;;;;4965251;28;20046;-89
2023/04/10 00:27:26;;;;;;;21.70;12.25;;;10.70;88.30;;;;;;4967802;28;20023;-88
2023/04/10 00:29:54;;;;;;;18.23;11.13;;;10.80;88.60;;;;;;4950983;28;20035;-89
2023/04/10 00:32:20;;;;;;;18.33;11.82;;;10.80;88.60;;;;;;4952500;28;20023;-88
2023/04/10 00:34:45;;;;;;;20.77;11.43;;;10.80;88.60;;;;;;4972720;28;20164;-89
2023/04/10 00:37:13;;;;;;;25.17;12.02;;;10.80;88.60;;;;;;4972561;28;20055;-89
2023/04/10 00:39:39;;;;;;;19.30;10.95;;;10.80;88.70;;;;;;4957751;28;20250;-89
2023/04/10 00:42:08;;;;;;;19.85;11.50;;;10.80;88.70;;;;;;4965187;28;20114;-88
2023/04/10 00:44:36;;;;;;;17.42;11.18;;;10.80;89.00;;;;;;4970234;28;20023;-88
2023/04/10 00:47:06;;;;;;;17.60;10.70;;;10.80;89.00;;;;;;4967660;28;20031;-88
2023/04/10 00:49:33;;;;;;;19.52;11.95;;;10.80;89.40;;;;;;4972124;28;20050;-88
2023/04/10 00:51:58;;;;;;;20.77;11.40;;;10.70;89.50;;;;;;4957091;28;20034;-88
2023/04/10 00:54:26;;;;;;;17.27;11.35;;;10.70;89.60;;;;;;4959692;28;20031;-88
2023/04/10 00:56:52;;;;;;;20.15;11.32;;;10.60;90.00;;;;;;4968709;28;20063;-88
2023/04/10 00:59:18;;;;;;;20.35;11.80;;;10.60;90.30;;;;;;4971824;28;20429;-88
2023/04/10 01:01:43;;;;;;;20.35;11.32;;;10.50;90.50;;;;;;4956746;28;20027;-89
2023/04/10 01:04:10;;;;;;;20.02;10.95;;;10.40;90.70;;;;;;4970509;28;20502;-89
2023/04/10 01:07:02;;;;;;;19.70;10.77;;;10.40;90.90;;;;;;4954623;28;20106;-88
2023/04/10 01:09:49;;;;;;;17.15;10.85;;;10.30;90.90;;;;;;4956353;28;20018;-88
2023/04/10 01:12:39;;;;;;;18.05;11.18;;;10.30;91.30;;;;;;4966213;28;20027;-89
2023/04/10 01:15:14;;;;;;;18.75;11.40;;;10.20;91.50;;;;;;4973369;28;20023;-89
2023/04/10 01:17:43;;;;;;;19.63;11.13;;;10.20;91.40;;;;;;4955126;28;20035;-87
2023/04/10 01:20:13;;;;;;;19.30;10.60;;;10.20;91.40;;;;;;4959483;28;20039;-88
2023/04/10 01:23:07;;;;;;;18.58;10.65;;;10.20;91.40;;;;;;4971075;28;20039;-88
2023/04/10 01:26:00;;;;;;;15.70;9.68;;;10.20;91.50;;;;;;4951788;28;20082;-89
2023/04/10 01:28:50;;;;;;;21.25;11.32;;;10.20;91.50;;;;;;4966569;28;20063;-88
2023/04/10 01:31:20;;;;;;;17.00;9.73;;;10.20;91.60;;;;;;4966331;28;20039;-87
2023/04/10 01:33:55;;;;;;;17.75;10.02;;;10.30;91.70;;;;;;4971935;28;20471;-88
2023/04/10 01:36:26;;;;;;;16.08;9.50;;;10.30;91.60;;;;;;4957978;28;20027;-88
2023/04/10 01:38:54;;;;;;;16.98;9.80;;;10.30;91.70;;;;;;4959067;28;20522;-89
2023/04/10 01:41:22;;;;;;;16.15;10.40;;;10.30;91.80;;;;;;4984625;28;20092;-86
2023/04/10 01:43:50;;;;;;;14.95;9.73;;;10.30;91.50;;;;;;4981921;28;20094;-87
2023/04/10 01:46:20;;;;;;;19.23;10.10;;;10.30;91.50;;;;;;4998195;28;20015;-87
2023/04/10 01:48:48;;;;;;;18.67;9.73;;;10.30;91.60;;;;;;4971351;28;20027;-88
2023/04/10 01:51:15;;;;;;;16.33;9.95;;;10.30;91.70;;;;;;4981601;28;20066;-88
2023/04/10 01:53:44;;;;;;;19.17;10.05;;;10.30;91.90;;;;;;4971225;28;20058;-88
2023/04/10 01:56:11;;;;;;;18.00;10.43;;;10.20;92.00;;;;;;4975449;28;20023;-89
2023/04/10 01:58:37;;;;;;;19.63;10.40;;;10.20;92.10;;;;;;4972382;28;20075;-89
2023/04/10 02:01:03;;;;;;;18.27;10.15;;;10.20;92.20;;;;;;4973517;28;20058;-89
2023/04/10 02:03:28;;;;;;;17.38;10.60;;;10.10;92.30;;;;;;4971867;28;20055;-88
2023/04/10 02:06:22;;;;;;;16.50;10.02;;;10.10;92.30;;;;;;4967552;28;20026;-88
2023/04/10 02:09:08;;;;;;;18.45;10.00;;;10.10;92.50;;;;;;4932220;28;20039;-88
2023/04/10 02:11:53;;;;;;;18.90;9.70;;;10.10;92.50;;;;;;4972869;28;20105;-89
2023/04/10 02:14:21;;;;;;;16.55;9.63;;;10.10;92.60;;;;;;4954077;28;20404;-89
2023/04/10 02:16:51;;;;;;;17.38;10.57;;;10.10;92.60;;;;;;4966068;28;20024;-88
2023/04/10 02:19:22;;;;;;;21.05;10.45;;;10.00;92.90;;;;;;4961456;28;20027;-88
2023/04/10 02:21:51;;;;;;;18.83;10.57;;;10.00;92.90;;;;;;4953637;28;20043;-88
2023/04/10 02:24:18;;;;;;;15.57;9.95;;;10.00;93.00;;;;;;4962370;28;20035;-88
2023/04/10 02:26:51;;;;;;;17.52;10.55;;;10.00;93.00;;;;;;4962321;28;20703;-86
2023/04/10 02:29:20;;;;;;;16.77;9.20;;;10.00;93.10;;;;;;4957170;28;20034;-86
2023/04/10 02:31:47;;;;;;;17.08;8.98;;;10.00;93.10;;;;;;4963169;28;20020;-86
2023/04/10 02:34:13;;;;;;;16.23;9.73;;;10.00;93.20;;;;;;4970289;28;20404;-86
2023/04/10 02:36:39;;;;;;;18.17;9.93;;;10.00;93.20;;;;;;4954549;28;20044;-86
2023/04/10 02:39:05;;;;;;;18.35;9.45;;;10.00;93.10;;;;;;4971527;28;20082;-86
2023/04/10 02:41:31;;;;;;;17.75;9.63;;;10.00;93.20;;;;;;4969217;28;20027;-86
2023/04/10 02:43:57;;;;;;;15.82;9.30;;;10.00;93.20;;;;;;4965267;28;20037;-86
2023/04/10 02:46:22;;;;;;;19.92;10.25;;;10.00;93.30;;;;;;4970574;28;20190;-87
2023/04/10 02:48:48;;;;;;;15.32;9.75;;;10.00;93.30;;;;;;4972846;28;20077;-86
2023/04/10 02:51:13;;;;;;;15.90;9.00;;;10.00;93.60;;;;;;4954175;28;20035;-86
2023/04/10 02:53:39;;;;;;;16.17;9.48;;;10.00;93.50;;;;;;4971581;28;20514;-86
2023/04/10 02:56:06;;;;;;;18.73;9.93;;;10.00;93.60;;;;;;4969925;28;20035;-85
2023/04/10 02:58:32;;;;;;;15.82;8.68;;;9.90;93.90;;;;;;4969907;28;20117;-83
2023/04/10 03:00:58;;;;;;;15.20;9.25;;;9.90;94.00;;;;;;4971703;28;20027;-86
2023/04/10 03:03:24;;;;;;;15.00;9.38;;;9.80;94.30;;;;;;4967692;28;20154;-86
2023/04/10 03:05:49;;;;;;;20.00;8.68;;;9.70;94.30;;;;;;4972682;28;20122;-87
2023/04/10 03:08:16;;;;;;;15.80;9.55;;;9.70;94.50;;;;;;4955925;28;20038;-86
2023/04/10 03:10:49;;;;;;;16.15;9.13;;;9.60;94.60;;;;;;4953735;28;20394;-86
2023/04/10 03:13:15;;;;;;;15.02;8.90;;;9.60;94.70;;;;;;4955429;28;20024;-86
2023/04/10 03:15:41;;;;;;;16.63;10.05;;;9.60;94.70;;;;;;4954033;28;20039;-86
2023/04/10 03:18:08;;;;;;;18.60;9.20;;;9.60;94.70;;;;;;4954600;28;20142;-86
2023/04/10 03:20:37;;;;;;;15.07;8.88;;;9.60;94.70;;;;;;4966260;28;20031;-85
2023/04/10 03:23:06;;;;;;;16.63;9.07;;;9.70;94.90;;;;;;4950971;28;20115;-86
2023/04/10 03:25:36;;;;;;;16.52;9.23;;;9.70;94.90;;;;;;4954705;28;20401;-86
2023/04/10 03:28:02;;;;;;;15.15;9.32;;;9.70;94.90;;;;;;4968917;28;20087;-86
2023/04/10 03:30:27;;;;;;;17.42;8.98;;;9.70;95.00;;;;;;4971448;28;20803;-86
2023/04/10 03:32:54;;;;;;;15.60;9.02;;;9.60;95.10;;;;;;4969224;28;20047;-85
2023/04/10 03:35:19;;;;;;;15.25;8.60;;;9.60;95.30;;;;;;4949384;28;20054;-86
2023/04/10 03:37:48;;;;;;;14.57;8.93;;;9.60;95.30;;;;;;4950918;28;20070;-86
2023/04/10 03:40:14;;;;;;;16.75;9.63;;;9.60;95.30;;;;;;4955007;28;20380;-86
2023/04/10 03:42:40;;;;;;;17.25;9.57;;;9.60;95.50;;;;;;4962662;28;20019;-86
2023/04/10 03:45:06;;;;;;;17.55;9.60;;;9.50;95.60;;;;;;4950690;28;20239;-86
2023/04/10 03:47:33;;;;;;;14.77;9.10;;;9.50;95.70;;;;;;4954411;28;20368;-86
2023/04/10 03:49:59;;;;;;;16.23;9.15;;;9.50;95.80;;;;;;4970638;28;20089;-86
2023/04/10 03:52:26;;;;;;;16.65;9.05;;;9.50;95.90;;;;;;4973246;28;20030;-87
2023/04/10 03:54:52;;;;;;;16.40;9.27;;;9.40;95.90;;;;;;4952950;28;20223;-86
2023/04/10 03:57:19;;;;;;;16.75;9.23;;;9.40;96.00;;;;;;4954446;28;20673;-86
2023/04/10 03:59:46;;;;;;;16.00;8.32;;;9.40;96.10;;;;;;4956801;28;20030;-86
2023/04/10 04:02:11;;;;;;;16.98;9.57;;;9.40;96.10;;;;;;4965025;28;20122;-86
2023/04/10 04:04:40;;;;;;;17.58;8.77;;;9.40;96.10;;;;;;4953961;28;20539;-86
2023/04/10 04:07:05;;;;;;;18.63;10.55;;;9.50;96.10;;;;;;4966812;28;20015;-86
2023/04/10 04:09:31;;;;;;;16.38;8.80;;;9.50;96.20;;;;;;4966683;28;20073;-86
2023/04/10 04:11:57;;;;;;;14.82;8.38;;;9.50;96.30;;;;;;4972656;28;20206;-86
2023/04/10 04:14:23;;;;;;;14.77;8.73;;;9.40;96.40;;;;;;4951569;28;20502;-86
2023/04/10 04:16:49;;;;;;;12.43;8.25;;;9.30;96.60;;;;;;4967992;28;20054;-86
2023/04/10 04:19:15;;;;;;;14.57;8.13;;;9.30;96.60;;;;;;4951014;28;20035;-86
2023/04/10 04:21:43;;;;;;;16.25;9.02;;;9.30;96.70;;;;;;4949294;28;20071;-89
2023/04/10 04:24:08;;;;;;;16.35;8.32;;;9.30;96.80;;;;;;4969573;28;20031;-89
2023/04/10 04:26:36;;;;;;;14.93;8.57;;;9.30;96.90;;;;;;4962986;28;20119;-86
2023/04/10 04:29:02;;;;;;;15.98;8.80;;;9.30;97.00;;;;;;4977003;28;20159;-86
2023/04/10 04:31:31;;;;;;;15.18;8.50;;;9.30;97.00;;;;;;4971901;28;20054;-86
2023/04/10 04:33:57;;;;;;;15.15;9.13;;;9.30;97.10;;;;;;4969182;28;20194;-86
2023/04/10 04:36:23;;;;;;;15.45;9.00;;;9.30;97.10;;;;;;4982947;28;20038;-86
2023/04/10 04:38:51;;;;;;;15.75;8.45;;;9.30;97.30;;;;;;4978127;28;20015;-87
2023/04/10 04:41:16;;;;;;;16.08;8.27;;;9.20;97.20;;;;;;4970467;28;20110;-86
2023/04/10 04:43:46;;;;;;;15.43;8.38;;;9.20;97.30;;;;;;4956875;28;20464;-86
2023/04/10 04:46:12;;;;;;;15.43;8.95;;;9.20;97.40;;;;;;4977898;28;20113;-86
2023/04/10 04:48:37;;;;;;;12.65;8.27;;;9.20;97.30;;;;;;4975271;28;20023;-88
2023/04/10 04:51:14;;;;;;;13.55;8.07;;;9.20;97.30;;;;;;4976240;28;20108;-88
2023/04/10 04:53:40;;;;;;;14.65;8.07;;;9.20;97.30;;;;;;4973255;28;20361;-88
2023/04/10 04:56:06;;;;;;;13.15;8.45;;;9.30;97.30;;;;;;4977851;28;20020;-86
2023/04/10 04:58:31;;;;;;;16.60;9.27;;;9.30;97.40;;;;;;4974619;28;20023;-89
2023/04/10 05:00:57;;;;;;;12.52;7.65;;;9.20;97.40;;;;;;4976959;28;20147;-90
2023/04/10 05:03:23;;;;;;;12.35;7.70;;;9.20;97.30;;;;;;4978121;28;20078;-90
2023/04/10 05:05:49;;;;;;;15.07;8.18;;;9.20;97.30;;;;;;4985593;28;20050;-90
2023/04/10 05:08:17;;;;;;;16.67;8.55;;;9.30;97.40;;;;;;4962156;28;20118;-87
2023/04/10 05:10:46;;;;;;;13.30;8.45;;;9.30;97.30;;;;;;4955979;28;20173;-87
2023/04/10 05:13:11;;;;;;;12.88;7.80;;;9.30;97.50;;;;;;4964186;28;20024;-85
2023/04/10 05:15:38;;;;;;;14.82;8.48;;;9.40;97.30;;;;;;4957875;28;20406;-86
2023/04/10 05:18:03;;;;;;;16.75;8.85;;;9.30;97.50;;;;;;4962380;28;20019;-85
2023/04/10 05:20:30;;;;;;;15.95;8.90;;;9.40;97.60;;;;;;4970314;28;20034;-87
2023/04/10 05:22:57;;;;;;;14.25;8.65;;;9.30;97.70;;;;;;4974709;28;20062;-87
2023/04/10 05:25:22;;;;;;;14.60;8.88;;;9.40;97.70;;;;;;4960007;28;20027;-87
2023/04/10 05:27:48;;;;;;;17.30;9.23;;;9.40;97.60;;;;;;4976263;28;20031;-86
2023/04/10 05:30:14;;;;;;;15.77;9.00;;;9.40;97.70;;;;;;4976799;28;20246;-89
2023/04/10 05:32:40;;;;;;;16.38;9.48;;;9.40;97.50;;;;;;4961261;28;20047;-91
2023/04/10 05:35:06;;;;;;;17.73;8.48;;;9.50;97.60;;;;;;4970237;28;20040;-90
2023/04/10 05:37:31;;;;;;;14.50;9.00;;;9.60;97.30;;;;;;4955419;28;20019;-90
2023/04/10 05:39:58;;;;;;;14.07;9.27;;;9.60;97.10;;;;;;4961926;28;20526;-89
2023/04/10 05:42:23;;;;;;;13.45;8.57;;;9.60;97.20;;;;;;4981302;28;20057;-89
2023/04/10 05:44:56;;;;;;;15.88;9.20;;;9.80;97.20;;;;;;4998139;28;20051;-89
2023/04/10 05:47:22;;;;;;;;;;;9.80;96.90;;;;;;4996879;28;20045;-87
2023/04/10 05:49:47;;;;;;;17.55;8.82;;;9.90;96.70;;;;;;4997086;28;19907;-88
2023/04/10 05:52:13;;;;;;;14.93;8.55;;;9.90;96.60;;;;;;4991852;28;20568;-87
2023/04/10 05:54:39;;;;;;;15.07;9.05;;;10.00;96.60;;;;;;4996959;28;20139;-90
2023/04/10 05:57:04;;;;;;;14.52;8.82;;;10.10;96.30;;;;;;4989861;28;20045;-88
2023/04/10 05:59:30;;;;;;;13.80;8.57;;;10.20;96.20;;;;;;4978519;28;20042;-88
2023/04/10 06:01:56;;;;;;;15.50;8.70;;;10.30;96.10;;;;;;4976621;28;20285;-89
2023/04/10 06:04:22;;;;;;;14.40;8.32;;;10.40;95.90;;;;;;4986005;28;20028;-88
2023/04/10 06:06:50;;;;;;;12.68;8.43;;;10.40;95.60;;;;;;4976594;28;20079;-89
2023/04/10 06:09:16;;;;;;;14.40;8.35;;;10.50;95.50;;;;;;4980232;28;20031;-89
2023/04/10 06:11:41;;;;;;;12.38;7.57;;;10.60;95.40;;;;;;4968169;28;20037;-89
2023/04/10 06:14:07;;;;;;;12.10;7.47;;;10.70;95.40;;;;;;4989093;28;20031;-89
2023/04/10 06:16:33;;;;;;;12.93;8.43;;;10.80;95.30;;;;;;4972758;28;20035;-90
2023/04/10 06:18:58;;;;;;;13.43;7.93;;;10.90;95.20;;;;;;4992738;28;20023;-89
2023/04/10 06:21:24;;;;;;;13.70;7.53;;;11.00;94.90;;;;;;4985071;28;20098;-89
2023/04/10 06:23:50;;;;;;;12.23;7.75;;;11.00;94.70;;;;;;4984664;28;20086;-88
2023/04/10 06:26:16;;;;;;;13.07;8.07;;;11.00;94.40;;;;;;4973334;28;20023;-89
2023/04/10 06:28:41;;;;;;;13.98;8.02;;;11.20;94.30;;;;;;4962268;28;20475;-89
2023/04/10 06:31:07;;;;;;;11.60;7.50;;;11.40;94.30;;;;;;4960428;28;20487;-90
2023/04/10 06:33:36;;;;;;;13.23;8.35;;;11.50;94.00;;;;;;4973536;28;20394;-90
2023/04/10 06:36:02;;;;;;;11.95;7.78;;;11.60;93.80;;;;;;4954444;28;20023;-88
2023/04/10 06:38:29;;;;;;;11.27;8.27;;;11.80;93.80;;;;;;4955636;28;20024;-90
2023/04/10 06:40:54;;;;;;;13.43;7.57;;;11.80;93.60;;;;;;4977014;28;20114;-90
2023/04/10 06:43:20;;;;;;;12.73;7.30;;;11.90;93.70;;;;;;4959597;28;20456;-89
2023/04/10 06:45:46;;;;;;;11.10;7.40;;;12.00;93.30;;;;;;4977711;28;20113;-90
2023/04/10 06:48:12;;;;;;;15.00;7.72;;;12.10;93.20;;;;;;4972320;28;20042;-90
2023/04/10 06:50:37;;;;;;;12.35;7.60;;;12.10;93.10;;;;;;4951963;28;20388;-90
2023/04/10 06:53:05;;;;;;;11.68;7.13;;;12.20;93.20;;;;;;4953406;28;20035;-89
2023/04/10 06:55:31;;;;;;;12.32;7.07;;;12.40;92.90;;;;;;4957260;28;20034;-90
2023/04/10 06:57:57;;;;;;;11.77;7.70;;;12.50;92.50;;;;;;4970433;28;20028;-91
2023/04/10 07:00:23;;;;;;;14.77;7.38;;;12.60;92.60;;;;;;4954568;28;20023;-89
2023/04/10 07:02:49;;;;;;;11.13;6.57;;;12.60;92.40;;;;;;4956214;28;20443;-90
2023/04/10 07:05:15;;;;;;;8.48;6.63;;;12.80;92.40;;;;;;4980500;28;20023;-88
2023/04/10 07:07:41;;;;;;;12.43;7.50;;;12.80;92.00;;;;;;4974829;28;20027;-91
2023/04/10 07:10:10;;;;;;;12.60;7.70;;;12.90;91.90;;;;;;4962511;28;20035;-91
2023/04/10 07:12:35;;;;;;;9.85;7.20;;;13.00;91.50;;;;;;4958945;28;20381;-90
2023/04/10 07:15:01;;;;;;;9.98;6.78;;;13.10;91.40;;;;;;4969994;28;20023;-90
2023/04/10 07:17:27;;;;;;;15.82;7.63;;;13.20;91.10;;;;;;4980224;28;20027;-89
2023/04/10 07:19:55;;;;;;;10.68;6.50;;;13.30;91.30;;;;;;4989625;28;20039;-88
2023/04/10 07:22:20;;;;;;;10.40;6.55;;;13.40;91.00;;;;;;4981973;28;20114;-90
2023/04/10 07:24:47;;;;;;;16.13;7.10;;;13.50;90.80;;;;;;4972687;28;20058;-91
2023/04/10 07:27:12;;;;;;;12.15;7.10;;;13.60;90.80;;;;;;4968574;28;20480;-90
2023/04/10 07:29:38;;;;;;;12.85;7.15;;;13.60;90.30;;;;;;4966222;28;20047;-93
2023/04/10 07:32:04;;;;;;;9.57;6.60;;;13.70;89.40;;;;;;4981963;28;20130;-86
2023/04/10 07:34:31;;;;;;;12.30;6.78;;;13.70;88.90;;;;;;4956673;28;20359;-88
2023/04/10 07:36:59;;;;;;;14.98;7.43;;;13.80;89.20;;;;;;4966616;28;20049;-91
2023/04/10 07:39:24;;;;;;;12.30;7.00;;;13.80;89.30;;;;;;4948919;28;20039;-94
2023/04/10 07:41:53;;;;;;;15.30;6.28;;;13.80;88.40;;;;;;4952747;28;20065;-88
2023/04/10 07:44:19;;;;;;;12.13;6.80;;;13.90;86.70;;;;;;4958584;28;20041;-92
2023/04/10 07:46:44;;;;;;;9.88;6.30;;;13.90;86.60;;;;;;4975150;28;20138;-88
2023/04/10 07:49:11;;;;;;;9.98;5.60;;;14.00;85.80;;;;;;4972644;28;20031;-86
2023/04/10 07:51:36;;;;;;;8.05;5.95;;;14.00;84.50;;;;;;4954638;28;20027;-88
2023/04/10 07:54:02;;;;;;;10.07;6.07;;;14.10;84.00;;;;;;4971581;28;20083;-86
2023/04/10 07:56:30;;;;;;;13.50;6.63;;;14.20;84.30;;;;;;4967417;28;20033;-85
2023/04/10 07:58:59;;;;;;;16.73;6.53;;;14.20;83.70;;;;;;4952438;28;20020;-85
2023/04/10 08:01:26;;;;;;;10.77;6.40;;;14.30;83.40;;;;;;4953949;28;20037;-82
2023/04/10 08:03:52;;;;;;;10.60;6.30;;;14.50;83.50;;;;;;4958086;28;20118;-84
2023/04/10 08:06:18;;;;;;;8.73;5.30;;;14.60;82.80;;;;;;4955902;28;20110;-86
2023/04/10 08:08:43;;;;;;;7.68;5.40;;;14.50;81.00;;;;;;4960156;28;20031;-87
2023/04/10 08:11:24;;;;;;;10.75;5.82;;;14.70;81.20;;;;;;4972163;28;20023;-83
2023/04/10 08:13:51;;;;;;;10.05;5.95;;;14.80;82.30;;;;;;4955619;28;20209;-85
2023/04/10 08:16:21;;;;;;;12.57;5.53;;;14.90;80.70;;;;;;4954518;28;20046;-85
2023/04/10 08:18:47;;;;;;;11.70;6.25;;;14.90;81.20;;;;;;4958487;28;20030;-81
2023/04/10 08:21:13;;;;;;;9.88;5.40;;;15.00;79.60;;;;;;4961300;28;20523;-81
2023/04/10 08:23:38;;;;;;;10.45;5.50;;;15.10;80.20;;;;;;4970677;28;20122;-89
2023/04/10 08:26:04;;;;;;;7.72;5.80;;;14.90;79.30;;;;;;4956777;28;20023;-82
2023/04/10 08:28:31;;;;;;;8.68;5.25;;;15.00;79.40;;;;;;4953289;28;20030;-87
2023/04/10 08:30:56;;;;;;;6.00;4.95;;;15.00;79.00;;;;;;4973117;28;20033;-85
2023/04/10 08:33:22;;;;;;;7.32;5.60;;;15.10;78.70;;;;;;4956715;28;20042;-82
2023/04/10 08:35:48;;;;;;;8.43;5.28;;;15.20;78.30;;;;;;4953042;28;20658;-80
2023/04/10 08:38:14;;;;;;;7.82;5.38;;;15.10;77.80;;;;;;4977286;28;20035;-82
2023/04/10 08:40:40;;;;;;;8.73;5.70;;;15.30;78.10;;;;;;4951603;28;20047;-81
2023/04/10 08:43:05;;;;;;;8.52;5.07;;;15.30;77.70;;;;;;4968333;28;20058;-86
2023/04/10 08:45:31;;;;;;;10.95;6.30;;;15.10;77.90;;;;;;4973866;28;20050;-86
2023/04/10 08:48:01;;;;;;;8.30;5.47;;;15.10;76.60;;;;;;4974615;28;20073;-89
2023/04/10 08:50:30;;;;;;;13.38;5.40;;;15.30;77.20;;;;;;4966321;28;20031;-84
2023/04/10 08:53:00;;;;;;;9.27;5.38;;;15.50;77.20;;;;;;4955937;28;20037;-91
2023/04/10 08:55:26;;;;;;;8.20;5.63;;;15.80;77.40;;;;;;4950564;28;20038;-87
2023/04/10 08:57:53;;;;;;;9.80;5.65;;;16.10;76.40;;;;;;4959894;28;20110;-91
2023/04/10 09:00:18;;;;;;;6.20;4.65;;;16.30;75.70;;;;;;4948483;28;20538;-94
2023/04/10 09:02:44;;;;;;;6.32;4.85;;;16.50;74.80;;;;;;4958484;28;20151;-90
2023/04/10 09:05:12;;;;;;;7.20;5.07;;;16.80;75.60;;;;;;4972846;28;20037;-88
2023/04/10 09:07:38;;;;;;;8.20;5.35;;;17.00;74.60;;;;;;4955402;28;20487;-90
2023/04/10 09:10:04;;;;;;;9.15;5.10;;;17.10;72.80;;;;;;4971477;28;20141;-88
2023/04/10 09:12:46;;;;;;;8.30;5.43;;;17.30;72.70;;;;;;4950770;28;20023;-89
2023/04/10 09:15:12;;;;;;;11.07;5.15;;;17.30;71.30;;;;;;4957441;28;20031;-89
2023/04/10 09:18:00;;;;;;;7.57;5.60;;;17.10;71.70;;;;;;4953637;28;20055;-86
2023/04/10 09:20:29;;;;;;;7.38;5.43;;;17.40;71.60;;;;;;4972886;28;20602;-89
2023/04/10 09:22:55;;;;;;;7.15;4.85;;;17.40;72.50;;;;;;4973378;28;20035;-89
2023/04/10 09:25:39;;;;;;;9.98;5.28;;;16.70;71.80;;;;;;4955740;28;20035;-88
2023/04/10 09:28:08;;;;;;;9.32;5.25;;;17.10;74.20;;;;;;4973917;28;20024;-87
2023/04/10 09:30:40;;;;;;;8.10;5.40;;;17.40;73.10;;;;;;4952880;28;20067;-90
2023/04/10 09:33:34;;;;;;;11.43;6.22;;;17.80;73.60;;;;;;4970259;28;20023;-89
2023/04/10 09:36:00;;;;;;;11.85;6.72;;;17.90;72.80;;;;;;4967972;28;20569;-90
2023/04/10 09:38:25;;;;;;;7.93;5.40;;;17.80;71.50;;;;;;4977388;28;20023;-86
2023/04/10 09:40:51;;;;;;;6.68;5.22;;;17.90;70.50;;;;;;4955127;28;20023;-87
2023/04/10 09:43:23;;;;;;;9.27;6.00;;;17.60;70.20;;;;;;4954221;28;20096;-87
2023/04/10 09:45:50;;;;;;;5.45;4.85;;;17.70;71.60;;;;;;4951154;28;20070;-86
2023/04/10 09:48:16;;;;;;;8.88;6.28;;;17.80;70.50;;;;;;4974670;28;20033;-88
2023/04/10 09:50:42;;;;;;;8.35;5.30;;;17.90;70.40;;;;;;4972312;28;20134;-87
2023/04/10 09:53:10;;;;;;;7.15;5.40;;;17.90;69.70;;;;;;4971239;28;20065;-88
2023/04/10 09:55:36;;;;;;;8.02;5.90;;;17.60;69.60;;;;;;4955609;28;20026;-87
2023/04/10 09:58:04;;;;;;;10.52;6.07;;;17.50;71.20;;;;;;4974362;28;20237;-89
2023/04/10 10:00:32;;;;;;;7.88;5.38;;;17.20;71.50;;;;;;4969560;28;20444;-90
2023/04/10 10:02:59;;;;;;;9.20;5.32;;;17.20;72.20;;;;;;4972281;28;20042;-90
2023/04/10 10:05:29;;;;;;;7.15;5.50;;;17.30;71.40;;;;;;4966387;28;20047;-85
2023/04/10 10:07:56;;;;;;;7.55;5.05;;;17.50;71.70;;;;;;4952397;28;20046;-89
2023/04/10 10:10:23;;;;;;;9.88;4.85;;;17.90;70.60;;;;;;4956859;28;20023;-88
2023/04/10 10:12:53;;;;;;;6.60;5.20;;;17.80;69.40;;;;;;4970128;28;20035;-87
2023/04/10 10:15:53;;;;;;;8.13;5.53;;;17.80;70.40;;;;;;4970205;28;20058;-88
2023/04/10 10:18:35;;;;;;;6.57;4.68;;;18.10;71.70;;;;;;4945932;28;20054;-91
2023/04/10 10:21:02;;;;;;;7.10;5.05;;;18.40;68.60;;;;;;4964327;28;20378;-91
2023/04/10 10:23:30;;;;;;;7.28;5.60;;;18.00;68.00;;;;;;4970461;28;20027;-92
2023/04/10 10:25:59;;;;;;;6.43;4.75;;;17.90;68.90;;;;;;4968776;28;20023;-90
2023/04/10 10:28:27;;;;;;;6.05;5.13;;;17.60;69.70;;;;;;4970475;28;20031;-88
2023/04/10 10:30:54;;;;;;;6.57;4.78;;;17.80;70.70;;;;;;4969066;28;20027;-88
2023/04/10 10:33:20;;;;;;;6.05;4.75;;;17.70;69.10;;;;;;4972057;28;20027;-89
2023/04/10 10:35:46;;;;;;;6.18;4.72;;;17.70;69.50;;;;;;4972073;28;20015;-87
2023/04/10 10:38:12;;;;;;;5.88;4.47;;;17.70;69.60;;;;;;4972767;28;20023;-85
2023/04/10 10:40:49;;;;;;;5.70;4.65;;;17.70;70.10;;;;;;4971697;28;20386;-88
2023/04/10 10:44:11;;;;;;;7.32;4.30;;;17.80;70.70;;;;;;4966572;28;20407;-91
2023/04/10 10:46:46;;;;;;;6.70;4.60;;;17.90;70.50;;;;;;4863114;29;20128;-90
2023/04/10 10:49:12;;;;;;;4.38;3.92;;;18.00;70.30;;;;;;4873873;29;20043;-92
2023/04/10 10:51:41;;;;;;;7.03;5.07;;;18.10;69.80;;;;;;4860635;29;20705;-88
2023/04/10 10:54:26;;;;;;;5.72;4.18;;;18.00;68.50;;;;;;4873584;29;20267;-86
2023/04/10 10:56:52;;;;;;;4.50;4.10;;;17.90;68.20;;;;;;4861703;29;20033;-81
2023/04/10 10:59:38;;;;;;;5.03;3.90;;;18.00;68.30;;;;;;5018293;23;20447;-85
2023/04/10 11:02:17;;;;;;;5.68;4.22;;;18.00;68.00;;;;;;4999804;28;20038;-87
2023/04/10 11:04:47;;;;;;;5.85;4.43;;;18.10;69.40;;;;;;4999594;28;20253;-85
2023/04/10 11:07:14;;;;;;;4.50;4.10;;;18.30;67.80;;;;;;5009481;28;20040;-88
2023/04/10 11:09:47;;;;;;;4.53;4.05;;;18.40;68.30;;;;;;5010733;28;20109;-88
2023/04/10 11:12:13;;;;;;;5.18;4.22;;;18.60;68.20;;;;;;4989183;28;20441;-83
2023/04/10 11:14:45;;;;;;;5.75;4.10;;;18.60;66.50;;;;;;4988266;28;20621;-88
2023/04/10 11:17:11;;;;;;;4.60;3.70;;;18.70;66.70;;;;;;5152331;23;20054;-92
2023/04/10 11:19:58;;;;;;;3.95;3.55;;;18.60;66.50;;;;;;5013979;28;20014;-85
2023/04/10 11:22:24;;;;;;;6.03;3.65;;;18.70;67.00;;;;;;5013187;28;20414;-87
2023/04/10 11:25:01;;;;;;;5.40;3.90;;;18.50;66.00;;;;;;4999540;28;20033;-90
2023/04/10 11:27:38;;;;;;;4.70;3.78;;;18.60;66.70;;;;;;5008594;28;20064;-86
2023/04/10 11:30:24;;;;;;;7.35;4.18;;;19.00;68.50;;;;;;4998848;28;20048;-83
2023/04/10 11:32:50;;;;;;;5.07;3.83;;;18.80;64.30;;;;;;4985673;28;20027;-84
2023/04/10 11:35:18;;;;;;;6.60;4.10;;;18.90;65.90;;;;;;4990960;28;20022;-88
2023/04/10 11:37:44;;;;;;;8.43;4.05;;;19.20;66.80;;;;;;4997976;28;20038;-87
2023/04/10 11:40:10;;;;;;;9.20;4.20;;;19.40;64.00;;;;;;4994219;28;20022;-90
2023/04/10 11:42:36;;;;;;;4.47;3.65;;;19.60;64.30;;;;;;4999055;28;20026;-88
2023/04/10 11:45:26;;;;;;;6.72;4.53;;;19.70;62.30;;;;;;4996401;28;20397;-86
2023/04/10 11:47:53;;;;;;;5.05;4.10;;;19.60;62.40;;;;;;4991572;28;20026;-80
2023/04/10 11:50:20;;;;;;;5.28;4.07;;;19.50;61.90;;;;;;4990622;28;20248;-83
2023/04/10 11:52:48;;;;;;;9.43;4.38;;;19.30;62.40;;;;;;4989362;28;20034;-85
2023/04/10 11:55:15;;;;;;;5.47;3.70;;;19.10;62.80;;;;;;4995211;28;20306;-88
2023/04/10 11:57:41;;;;;;;6.50;4.00;;;19.30;64.10;;;;;;4996438;28;20027;-87
2023/04/10 12:00:07;;;;;;;5.20;3.42;;;19.30;63.20;;;;;;4985708;28;20534;-85
2023/04/10 12:02:50;;;;;;;4.68;4.18;;;19.20;62.70;;;;;;4995492;28;20032;-86
2023/04/10 12:05:18;;;;;;;4.27;3.87;;;19.20;62.70;;;;;;4988257;28;20126;-82
2023/04/10 12:07:52;;;;;;;4.25;3.85;;;19.20;61.90;;;;;;4993233;28;20351;-84
2023/04/10 12:10:20;;;;;;;4.45;3.95;;;19.10;62.20;;;;;;5009713;28;20116;-82
2023/04/10 12:12:46;;;;;;;4.65;3.58;;;19.10;61.90;;;;;;4991635;28;20085;-81
2023/04/10 12:15:34;;;;;;;5.55;3.90;;;19.20;62.60;;;;;;4995227;28;20773;-84
2023/04/10 12:18:00;;;;;;;4.10;3.65;;;19.60;62.90;;;;;;4992153;28;20042;-80
2023/04/10 12:20:29;;;;;;;4.20;3.50;;;20.00;61.90;;;;;;4995322;28;20026;-81
2023/04/10 12:22:55;;;;;;;4.60;3.38;;;20.40;60.60;;;;;;4992474;28;20030;-81
2023/04/10 12:25:24;;;;;;;3.83;3.50;;;20.40;58.90;;;;;;4986853;28;20034;-82
2023/04/10 12:27:50;;;;;;;4.57;3.60;;;20.40;58.70;;;;;;4995985;28;20026;-82
2023/04/10 12:30:19;;;;;;;5.60;3.38;;;20.40;59.10;;;;;;4987636;28;20081;-83
2023/04/10 12:32:53;;;;;;;4.32;3.92;;;20.40;59.30;;;;;;4988463;28;20037;-87
2023/04/10 12:35:18;;;;;;;3.55;3.25;;;20.60;59.30;;;;;;4987708;28;20489;-82
2023/04/10 12:37:51;;;;;;;4.80;4.32;;;20.80;58.40;;;;;;4992259;28;20112;-81
2023/04/10 12:40:19;;;;;;;;;;;20.30;58.50;;;;;;4992455;28;20087;-84
2023/04/10 12:42:47;;;;;;;4.47;3.85;;;19.80;59.70;;;;;;5006137;28;19921;-80
2023/04/10 12:45:13;;;;;;;4.93;3.83;;;19.40;59.80;;;;;;4998447;28;20176;-83
2023/04/10 12:47:47;;;;;;;4.07;3.65;;;18.90;60.30;;;;;;5010480;28;20056;-83